createdAt,value
2022-09-04T00:00:53.317Z,17.81
2022-09-04T00:03:37.315Z,17.53
2022-09-04T00:06:14.581Z,17.72
2022-09-04T00:09:02.474Z,17.73
2022-09-04T00:11:45.019Z,17.72
2022-09-04T00:14:22.720Z,17.59
2022-09-04T00:17:02.119Z,17.58
2022-09-04T00:19:39.308Z,17.54
2022-09-04T00:22:20.962Z,17.56
2022-09-04T00:24:58.668Z,17.58
2022-09-04T00:27:35.884Z,17.59
2022-09-04T00:30:11.865Z,17.36
2022-09-04T00:32:45.697Z,17.34
2022-09-04T00:35:19.463Z,17.31
2022-09-04T00:37:53.744Z,16.91
2022-09-04T00:40:31.539Z,16.88
2022-09-04T00:43:37.889Z,16.99
2022-09-04T00:46:23.817Z,17.04
2022-09-04T00:49:15.909Z,16.83
2022-09-04T00:51:56.020Z,16.95
2022-09-04T00:54:47.229Z,16.88
2022-09-04T00:57:47.643Z,16.82
2022-09-04T01:00:18.748Z,16.99
2022-09-04T01:03:18.471Z,17.02
2022-09-04T01:06:16.755Z,17.01
2022-09-04T01:09:06.269Z,16.82
2022-09-04T01:11:43.432Z,16.87
2022-09-04T01:14:21.219Z,16.86
2022-09-04T01:16:56.969Z,16.81
2022-09-04T01:19:39.741Z,16.61
2022-09-04T01:22:27.058Z,16.62
2022-09-04T01:25:14.315Z,16.58
2022-09-04T01:27:57.453Z,16.84
2022-09-04T01:30:27.337Z,17.03
2022-09-04T01:33:09.772Z,16.99
2022-09-04T01:35:47.082Z,16.87
2022-09-04T01:38:22.944Z,16.76
2022-09-04T01:40:56.651Z,16.73
2022-09-04T01:43:28.936Z,16.56
2022-09-04T01:46:32.630Z,16.81
2022-09-04T01:49:10.118Z,16.78
2022-09-04T01:51:46.003Z,16.96
2022-09-04T01:54:45.990Z,16.91
2022-09-04T01:57:26.831Z,16.86
2022-09-04T02:00:08.375Z,17.06
2022-09-04T02:02:53.362Z,17.07
2022-09-04T02:05:29.283Z,16.97
2022-09-04T02:08:12.756Z,16.77
2022-09-04T02:10:53.430Z,16.76
2022-09-04T02:13:26.419Z,16.75
2022-09-04T02:16:15.304Z,16.70
2022-09-04T02:18:55.528Z,16.76
2022-09-04T02:21:34.030Z,16.74
2022-09-04T02:24:15.997Z,16.82
2022-09-04T02:26:55.160Z,16.58
2022-09-04T02:29:33.263Z,16.40
2022-09-04T02:32:13.990Z,16.74
2022-09-04T02:34:51.024Z,16.48
2022-09-04T02:37:29.549Z,16.55
2022-09-04T02:40:12.194Z,16.58
2022-09-04T02:42:52.331Z,16.27
2022-09-04T02:45:31.401Z,16.22
2022-09-04T02:48:13.910Z,16.39
2022-09-04T02:50:55.818Z,16.31
2022-09-04T02:53:33.298Z,16.40
2022-09-04T02:56:16.165Z,16.53
2022-09-04T02:58:55.702Z,16.40
2022-09-04T03:01:31.915Z,16.15
2022-09-04T03:04:15.787Z,16.03
2022-09-04T03:06:53.894Z,16.02
2022-09-04T03:09:30.289Z,15.97
2022-09-04T03:12:07.538Z,16.03
2022-09-04T03:14:43.030Z,15.81
2022-09-04T03:17:21.171Z,15.80
2022-09-04T03:19:59.941Z,15.71
2022-09-04T03:22:35.265Z,15.64
2022-09-04T03:25:26.762Z,15.77
2022-09-04T03:27:56.519Z,15.99
2022-09-04T03:30:26.326Z,16.03
2022-09-04T03:33:03.932Z,15.97
2022-09-04T03:35:42.394Z,15.84
2022-09-04T03:38:21.916Z,16.12
2022-09-04T03:41:04.577Z,15.91
2022-09-04T03:43:57.440Z,15.73
2022-09-04T03:46:40.787Z,16.02
2022-09-04T03:49:21.238Z,16.00
2022-09-04T03:52:07.162Z,15.98
2022-09-04T03:54:46.544Z,15.84
2022-09-04T03:57:34.366Z,15.94
2022-09-04T04:00:11.629Z,16.07
2022-09-04T04:02:57.929Z,16.04
2022-09-04T04:05:37.158Z,15.82
2022-09-04T04:08:35.472Z,15.89
2022-09-04T04:11:24.420Z,15.93
2022-09-04T04:14:31.006Z,15.94
2022-09-04T04:17:12.485Z,16.03
2022-09-04T04:19:50.173Z,16.05
2022-09-04T04:22:37.332Z,15.86
2022-09-04T04:25:37.239Z,15.67
2022-09-04T04:28:26.086Z,15.53
2022-09-04T04:31:00.170Z,15.27
2022-09-04T04:33:44.145Z,15.29
2022-09-04T04:36:28.417Z,15.32
2022-09-04T04:39:18.837Z,15.24
2022-09-04T04:42:12.193Z,15.01
2022-09-04T04:45:20.240Z,14.89
2022-09-04T04:48:24.934Z,14.75
2022-09-04T04:51:09.298Z,14.82
2022-09-04T04:53:47.641Z,15.18
2022-09-04T04:56:26.582Z,15.18
2022-09-04T04:59:20.660Z,15.06
2022-09-04T05:02:00.613Z,14.93
2022-09-04T05:04:46.117Z,15.50
2022-09-04T05:07:28.408Z,15.52
2022-09-04T05:10:06.856Z,15.09
2022-09-04T05:12:49.729Z,15.39
2022-09-04T05:15:30.380Z,15.47
2022-09-04T05:18:04.767Z,15.43
2022-09-04T05:20:42.964Z,15.55
2022-09-04T05:23:28.546Z,15.48
2022-09-04T05:26:03.814Z,15.28
2022-09-04T05:28:42.635Z,15.13
2022-09-04T05:31:26.007Z,15.37
2022-09-04T05:34:05.344Z,15.61
2022-09-04T05:36:48.603Z,15.35
2022-09-04T05:39:27.899Z,15.42
2022-09-04T05:42:10.945Z,15.56
2022-09-04T05:44:57.400Z,15.52
2022-09-04T05:47:43.592Z,15.61
2022-09-04T05:50:33.885Z,15.66
2022-09-04T05:53:22.517Z,15.55
2022-09-04T05:56:07.996Z,15.29
2022-09-04T05:58:56.860Z,15.18
2022-09-04T06:01:46.608Z,15.22
2022-09-04T06:04:57.410Z,15.47
2022-09-04T06:07:33.118Z,15.54
2022-09-04T06:10:12.191Z,15.76
2022-09-04T06:13:06.557Z,15.85
2022-09-04T06:15:53.497Z,15.80
2022-09-04T06:18:44.767Z,15.70
2022-09-04T06:21:54.177Z,15.79
2022-09-04T06:24:54.574Z,15.90
2022-09-04T06:27:39.747Z,15.88
2022-09-04T06:30:13.118Z,16.05
2022-09-04T06:33:12.878Z,16.12
2022-09-04T06:36:19.284Z,16.38
2022-09-04T06:39:06.841Z,16.70
2022-09-04T06:41:48.972Z,16.75
2022-09-04T06:44:30.942Z,17.30
2022-09-04T06:47:12.927Z,17.84
2022-09-04T06:49:58.813Z,18.31
2022-09-04T06:52:36.384Z,18.64
2022-09-04T06:55:16.615Z,18.73
2022-09-04T06:58:12.798Z,18.81
2022-09-04T07:00:53.592Z,19.13
2022-09-04T07:03:40.670Z,19.37
2022-09-04T07:06:15.756Z,19.52
2022-09-04T07:09:02.692Z,19.60
2022-09-04T07:11:47.486Z,19.89
2022-09-04T07:14:38.126Z,20.11
2022-09-04T07:17:17.259Z,20.07
2022-09-04T07:20:20.074Z,20.03
2022-09-04T07:23:02.837Z,19.99
2022-09-04T07:25:45.886Z,19.95
2022-09-04T07:28:28.988Z,20.23
2022-09-04T07:31:11.216Z,20.42
2022-09-04T07:33:48.475Z,20.65
2022-09-04T07:36:29.558Z,20.74
2022-09-04T07:39:10.235Z,20.91
2022-09-04T07:41:49.417Z,21.11
2022-09-04T07:44:29.729Z,21.22
2022-09-04T07:47:13.636Z,21.43
2022-09-04T07:49:54.226Z,21.62
2022-09-04T07:52:39.488Z,21.93
2022-09-04T07:55:31.554Z,21.99
2022-09-04T07:58:50.328Z,21.90
2022-09-04T08:01:40.105Z,21.91
2022-09-04T08:04:38.332Z,22.13
2022-09-04T08:07:13.307Z,22.31
2022-09-04T08:10:07.343Z,22.26
2022-09-04T08:12:59.161Z,22.35
2022-09-04T08:15:42.230Z,22.58
2022-09-04T08:18:33.788Z,22.86
2022-09-04T08:21:16.867Z,22.74
2022-09-04T08:24:09.342Z,23.07
2022-09-04T08:26:47.337Z,22.94
2022-09-04T08:29:39.073Z,22.59
2022-09-04T08:32:21.085Z,22.54
2022-09-04T08:35:12.688Z,23.04
2022-09-04T08:38:02.968Z,22.49
2022-09-04T08:41:10.831Z,22.84
2022-09-04T08:44:02.788Z,22.84
2022-09-04T08:46:58.439Z,22.65
2022-09-04T08:50:09.448Z,22.93
2022-09-04T08:53:06.714Z,22.99
2022-09-04T08:55:49.725Z,23.03
2022-09-04T08:58:47.970Z,23.22
2022-09-04T09:02:01.669Z,23.34
2022-09-04T09:05:02.062Z,23.57
2022-09-04T09:07:58.575Z,23.50
2022-09-04T09:10:39.327Z,23.42
2022-09-04T09:13:45.248Z,23.72
2022-09-04T09:16:22.730Z,23.72
2022-09-04T09:19:23.336Z,23.86
2022-09-04T09:22:12.497Z,23.90
2022-09-04T09:25:20.917Z,24.16
2022-09-04T09:28:24.085Z,24.12
2022-09-04T09:31:29.228Z,23.71
2022-09-04T09:34:41.971Z,23.96
2022-09-04T09:37:42.082Z,24.53
2022-09-04T09:40:59.139Z,24.66
2022-09-04T09:44:00.989Z,24.98
2022-09-04T09:47:02.848Z,25.02
2022-09-04T09:50:00.234Z,25.22
2022-09-04T09:52:55.598Z,25.06
2022-09-04T09:56:06.926Z,24.98
2022-09-04T09:59:09.812Z,24.94
2022-09-04T10:01:59.441Z,24.71
2022-09-04T10:05:03.686Z,24.19
2022-09-04T10:08:09.798Z,23.75
2022-09-04T10:11:11.630Z,23.93
2022-09-04T10:14:14.281Z,24.37
2022-09-04T10:17:16.218Z,24.71
2022-09-04T10:20:30.518Z,25.00
2022-09-04T10:23:25.895Z,25.18
2022-09-04T10:26:12.655Z,25.38
2022-09-04T10:29:13.905Z,25.05
2022-09-04T10:32:10.314Z,25.26
2022-09-04T10:35:09.634Z,25.48
2022-09-04T10:38:01.360Z,25.63
2022-09-04T10:40:44.508Z,25.82
2022-09-04T10:46:13.811Z,26.10
2022-09-04T10:49:31.481Z,25.61
2022-09-04T10:52:33.196Z,25.11
2022-09-04T10:55:19.035Z,25.11
2022-09-04T10:58:08.760Z,25.71
2022-09-04T11:00:51.392Z,26.00
2022-09-04T11:03:52.389Z,26.28
2022-09-04T11:06:55.544Z,26.43
2022-09-04T11:09:41.020Z,26.88
2022-09-04T11:12:25.829Z,27.04
2022-09-04T11:15:21.849Z,27.28
2022-09-04T11:18:25.710Z,27.06
2022-09-04T11:21:34.923Z,26.59
2022-09-04T11:24:28.933Z,27.04
2022-09-04T11:27:31.318Z,27.39
2022-09-04T11:30:07.632Z,27.24
2022-09-04T11:33:06.849Z,27.34
2022-09-04T11:35:58.275Z,27.27
2022-09-04T11:39:21.781Z,27.20
2022-09-04T11:42:26.772Z,27.26
2022-09-04T11:45:17.861Z,27.24
2022-09-04T11:48:21.320Z,26.96
2022-09-04T11:51:24.227Z,27.39
2022-09-04T11:54:25.173Z,27.45
2022-09-04T11:57:14.034Z,27.54
2022-09-04T12:00:17.865Z,27.45
2022-09-04T12:03:11.216Z,26.71
2022-09-04T12:05:52.975Z,27.13
2022-09-04T12:08:44.148Z,27.39
2022-09-04T12:11:44.231Z,27.35
2022-09-04T12:14:37.286Z,27.26
2022-09-04T12:17:39.028Z,27.73
2022-09-04T12:20:39.263Z,27.45
2022-09-04T12:23:26.543Z,27.51
2022-09-04T12:26:21.929Z,27.62
2022-09-04T12:29:26.872Z,27.55
2022-09-04T12:32:18.495Z,27.97
2022-09-04T12:35:27.479Z,28.24
2022-09-04T12:38:37.788Z,28.18
2022-09-04T12:41:12.329Z,27.99
2022-09-04T12:43:57.012Z,28.16
2022-09-04T12:46:51.049Z,28.28
2022-09-04T12:49:44.050Z,27.68
2022-09-04T12:52:24.855Z,26.94
2022-09-04T12:55:03.382Z,26.77
2022-09-04T12:57:48.169Z,26.48
2022-09-04T13:00:19.877Z,26.69
2022-09-04T13:03:05.785Z,26.79
2022-09-04T13:05:56.282Z,26.95
2022-09-04T13:08:38.094Z,27.06
2022-09-04T13:11:21.763Z,27.07
2022-09-04T13:14:04.860Z,27.23
2022-09-04T13:16:43.802Z,27.29
2022-09-04T13:19:28.675Z,27.33
2022-09-04T13:22:12.206Z,27.24
2022-09-04T13:24:53.789Z,27.41
2022-09-04T13:27:36.469Z,27.45
2022-09-04T13:30:10.754Z,27.35
2022-09-04T13:32:56.021Z,27.04
2022-09-04T13:35:42.694Z,27.08
2022-09-04T13:38:39.133Z,27.13
2022-09-04T13:41:30.573Z,27.57
2022-09-04T13:44:32.324Z,27.54
2022-09-04T13:47:09.066Z,27.60
2022-09-04T13:49:46.006Z,27.50
2022-09-04T13:52:27.995Z,27.44
2022-09-04T13:55:03.953Z,27.45
2022-09-04T13:57:43.681Z,27.59
2022-09-04T14:00:15.016Z,27.54
2022-09-04T14:02:44.963Z,26.94
2022-09-04T14:05:18.220Z,26.43
2022-09-04T14:07:54.208Z,26.73
2022-09-04T14:10:30.120Z,26.71
2022-09-04T14:13:11.403Z,26.57
2022-09-04T14:16:04.701Z,26.49
2022-09-04T14:18:56.637Z,26.81
2022-09-04T14:21:42.458Z,26.84
2022-09-04T14:24:24.252Z,26.95
2022-09-04T14:27:03.764Z,26.81
2022-09-04T14:29:44.374Z,26.73
2022-09-04T14:32:28.467Z,26.87
2022-09-04T14:35:08.596Z,27.05
2022-09-04T14:38:00.699Z,27.03
2022-09-04T14:40:35.527Z,27.14
2022-09-04T14:43:17.176Z,27.05
2022-09-04T14:46:06.996Z,26.94
2022-09-04T14:48:41.583Z,27.07
2022-09-04T14:51:18.926Z,26.92
2022-09-04T14:53:51.191Z,26.70
2022-09-04T14:56:31.777Z,26.34
2022-09-04T14:59:11.772Z,26.44
2022-09-04T15:02:00.986Z,26.25
2022-09-04T15:04:37.180Z,26.16
2022-09-04T15:07:25.223Z,26.20
2022-09-04T15:09:56.713Z,26.18
2022-09-04T15:12:35.307Z,25.74
2022-09-04T15:15:12.084Z,25.77
2022-09-04T15:17:51.633Z,25.86
2022-09-04T15:20:25.146Z,25.94
2022-09-04T15:23:00.409Z,25.95
2022-09-04T15:25:58.758Z,25.92
2022-09-04T15:28:38.643Z,25.90
2022-09-04T15:31:16.285Z,25.96
2022-09-04T15:33:48.301Z,25.97
2022-09-04T15:36:21.200Z,26.02
2022-09-04T15:38:55.285Z,25.96
2022-09-04T15:41:30.085Z,25.93
2022-09-04T15:44:15.197Z,25.80
2022-09-04T15:46:51.574Z,25.80
2022-09-04T15:49:30.966Z,25.80
2022-09-04T15:52:14.718Z,25.82
2022-09-04T15:55:03.624Z,25.75
2022-09-04T15:57:43.914Z,25.71
2022-09-04T16:00:24.527Z,25.64
2022-09-04T16:02:59.590Z,25.58
2022-09-04T16:05:41.606Z,25.44
2022-09-04T16:08:23.790Z,25.42
2022-09-04T16:11:00.504Z,25.42
2022-09-04T16:13:39.869Z,25.28
2022-09-04T16:16:16.020Z,25.29
2022-09-04T16:18:54.148Z,25.22
2022-09-04T16:21:32.611Z,25.07
2022-09-04T16:24:09.260Z,24.97
2022-09-04T16:26:41.181Z,24.89
2022-09-04T16:29:26.552Z,24.95
2022-09-04T16:32:01.471Z,24.85
2022-09-04T16:34:36.103Z,24.64
2022-09-04T16:37:12.869Z,24.51
2022-09-04T16:39:51.290Z,24.55
2022-09-04T16:42:26.704Z,24.46
2022-09-04T16:45:03.295Z,24.49
2022-09-04T16:47:45.410Z,24.39
2022-09-04T16:50:23.922Z,24.35
2022-09-04T16:53:13.353Z,24.39
2022-09-04T16:55:50.018Z,24.24
2022-09-04T16:58:35.543Z,24.20
2022-09-04T17:01:15.739Z,24.16
2022-09-04T17:04:20.249Z,24.06
2022-09-04T17:07:03.127Z,23.95
2022-09-04T17:09:52.922Z,24.02
2022-09-04T17:12:36.894Z,23.92
2022-09-04T17:15:16.252Z,23.79
2022-09-04T17:17:48.624Z,23.66
2022-09-04T17:20:48.516Z,23.59
2022-09-04T17:28:57.133Z,23.51
2022-09-04T17:29:12.869Z,23.45
2022-09-04T17:29:36.227Z,23.36
2022-09-04T17:33:57.089Z,23.26
2022-09-04T17:40:44.120Z,23.11
2022-09-04T17:40:53.290Z,23.00
2022-09-04T17:41:40.114Z,22.87
2022-09-04T17:44:25.577Z,22.76
2022-09-04T17:47:09.724Z,22.72
2022-09-04T17:49:47.359Z,22.63
2022-09-04T17:52:27.070Z,22.50
2022-09-04T17:55:03.701Z,22.46
2022-09-04T17:57:49.583Z,22.56
2022-09-04T18:00:24.150Z,22.44
2022-09-04T18:03:00.090Z,22.31
2022-09-04T18:05:36.475Z,22.20
2022-09-04T18:08:22.866Z,22.20
2022-09-04T18:11:00.547Z,22.09
2022-09-04T18:13:40.539Z,21.99
2022-09-04T18:16:25.075Z,21.98
2022-09-04T18:18:57.658Z,21.96
2022-09-04T18:21:31.654Z,21.89
2022-09-04T18:24:06.599Z,21.81
2022-09-04T18:26:44.019Z,21.74
2022-09-04T18:31:02.471Z,21.67
2022-09-04T18:37:21.856Z,21.68
2022-09-04T18:37:25.489Z,21.60
2022-09-04T18:38:40.167Z,21.61
2022-09-04T18:46:45.697Z,21.56
2022-09-04T18:50:31.178Z,21.41
2022-09-04T18:50:33.641Z,21.12
2022-09-04T18:50:50.533Z,21.24
2022-09-04T18:53:12.305Z,21.11
2022-09-04T18:55:49.028Z,21.05
2022-09-04T18:58:38.168Z,20.99
2022-09-04T19:01:26.717Z,20.96
2022-09-04T19:03:59.970Z,20.93
2022-09-04T19:06:36.663Z,20.84
2022-09-04T19:09:14.656Z,20.44
2022-09-04T19:11:50.570Z,20.68
2022-09-04T19:14:24.709Z,20.84
2022-09-04T19:17:01.236Z,20.82
2022-09-04T19:19:37.231Z,20.82
2022-09-04T19:22:13.663Z,20.78
2022-09-04T19:24:51.930Z,20.68
2022-09-04T19:27:29.652Z,20.51
2022-09-04T19:30:18.505Z,20.45
2022-09-04T19:33:14.724Z,20.46
2022-09-04T19:35:51.702Z,20.23
2022-09-04T19:44:19.745Z,20.12
2022-09-04T19:45:58.926Z,20.23
2022-09-04T19:46:26.141Z,20.22
2022-09-04T19:47:27.252Z,20.10
2022-09-04T19:52:57.538Z,19.93
2022-09-04T19:53:32.175Z,19.93
2022-09-04T19:56:11.135Z,20.02
2022-09-04T19:58:44.368Z,19.95
2022-09-04T20:01:18.516Z,19.80
2022-09-04T20:03:57.662Z,19.89
2022-09-04T20:06:34.919Z,19.83
2022-09-04T20:09:10.247Z,19.78
2022-09-04T20:11:46.003Z,19.95
2022-09-04T20:14:23.346Z,20.03
2022-09-04T20:17:10.192Z,19.98
2022-09-04T20:19:45.041Z,19.97
2022-09-04T20:22:31.386Z,19.83
2022-09-04T20:25:21.133Z,19.79
2022-09-04T20:27:56.834Z,19.84
2022-09-04T20:30:28.067Z,19.99
2022-09-04T20:33:03.273Z,19.82
2022-09-04T20:35:41.011Z,19.95
2022-09-04T20:38:23.474Z,19.72
2022-09-04T20:40:59.570Z,19.55
2022-09-04T20:43:40.263Z,19.52
2022-09-04T20:50:36.043Z,19.38
2022-09-04T20:52:49.569Z,19.33
2022-09-04T20:52:59.017Z,19.31
2022-09-04T20:55:17.518Z,19.68
2022-09-04T21:03:07.738Z,19.59
2022-09-04T21:03:21.750Z,19.62
2022-09-04T21:04:13.022Z,19.70
2022-09-04T21:06:52.179Z,19.56
2022-09-04T21:09:37.977Z,19.44
2022-09-04T21:12:36.230Z,19.39
2022-09-04T21:15:13.506Z,19.39
2022-09-04T21:18:02.371Z,19.45
2022-09-04T21:21:00.550Z,19.33
2022-09-04T21:24:02.994Z,19.27
2022-09-04T21:27:03.434Z,19.48
2022-09-04T21:29:56.918Z,19.45
2022-09-04T21:32:42.127Z,19.25
2022-09-04T21:35:19.140Z,19.30
2022-09-04T21:37:57.429Z,19.25
2022-09-04T21:40:55.763Z,19.19
2022-09-04T21:43:52.714Z,19.08
2022-09-04T21:46:53.157Z,18.89
2022-09-04T21:49:59.042Z,18.73
2022-09-04T21:52:56.274Z,18.76
2022-09-04T22:01:14.055Z,19.05
2022-09-04T22:02:39.689Z,18.74
2022-09-04T22:02:40.290Z,18.92
2022-09-04T22:05:06.020Z,18.86
2022-09-04T22:12:57.353Z,18.75
2022-09-04T22:13:39.192Z,18.66
2022-09-04T22:13:50.923Z,18.84
2022-09-04T22:16:42.205Z,18.70
2022-09-04T22:19:42.800Z,18.68
2022-09-04T22:22:31.432Z,18.75
2022-09-04T22:25:21.938Z,18.91
2022-09-04T22:28:17.222Z,18.89
2022-09-04T22:31:09.134Z,18.73
2022-09-04T22:34:14.918Z,18.48
2022-09-04T22:37:15.293Z,18.25
2022-09-04T22:40:08.585Z,18.46
2022-09-04T22:42:53.557Z,18.40
2022-09-04T22:45:42.945Z,18.46
2022-09-04T22:48:57.146Z,18.39
2022-09-04T22:52:10.108Z,18.51
2022-09-04T22:55:13.057Z,18.29
2022-09-04T22:58:11.793Z,18.30
2022-09-04T23:01:02.685Z,18.39
2022-09-04T23:03:49.181Z,18.18
2022-09-04T23:09:07.376Z,18.36
2022-09-04T23:13:52.005Z,18.32
2022-09-04T23:14:02.005Z,18.22
2022-09-04T23:16:29.354Z,18.32
2022-09-04T23:23:30.575Z,18.42
2022-09-04T23:26:43.775Z,17.83
2022-09-04T23:26:53.127Z,18.02
2022-09-04T23:28:34.420Z,17.89
2022-09-04T23:31:29.315Z,18.03
2022-09-04T23:34:20.348Z,18.04
2022-09-04T23:37:13.129Z,18.07
2022-09-04T23:40:04.952Z,18.06
2022-09-04T23:43:07.508Z,17.80
2022-09-04T23:46:01.299Z,17.51
2022-09-04T23:49:05.467Z,17.64
2022-09-04T23:51:44.058Z,17.69
2022-09-04T23:54:49.243Z,17.42
2022-09-04T23:57:26.926Z,17.63
